Time;durP1;ratioP1;P1;durP2;ratioP2;P2;SDS_P1;SDS_P2;PMS_P1;PMS_P2;Temp;Humidity;BMP_temperature;BMP_pressure;BME280_temperature;BME280_humidity;BME280_pressure;Samples;Min_cycle;Max_cycle;Signal;HPM_P1;HPM_P2
2023/10/09 00:01:05;;;;;;;7.78;3.90;;;;;;;13.85;100.00;100969.25;5077339;28;20127;-79
2023/10/09 00:03:36;;;;;;;5.40;3.65;;;;;;;13.61;100.00;100929.63;5060846;28;20051;-78
2023/10/09 00:06:09;;;;;;;6.22;3.80;;;;;;;13.78;100.00;100959.84;5073231;28;20127;-82
2023/10/09 00:08:44;;;;;;;8.25;4.28;;;;;;;13.66;100.00;100940.91;5074818;28;20047;-78
2023/10/09 00:11:16;;;;;;;11.82;3.63;;;;;;;13.68;100.00;100947.00;5077112;28;20045;-79
2023/10/09 00:13:57;;;;;;;10.13;4.40;;;;;;;13.86;100.00;100957.63;5070400;28;20056;-79
2023/10/09 00:16:34;;;;;;;9.93;4.78;;;;;;;13.70;100.00;100934.44;5077048;28;20131;-79
2023/10/09 00:19:16;;;;;;;12.85;5.70;;;;;;;13.86;100.00;100957.63;5071626;28;20053;-79
2023/10/09 00:21:46;;;;;;;9.45;4.20;;;;;;;13.75;100.00;100942.22;5077845;28;20166;-78
2023/10/09 00:24:22;;;;;;;9.93;4.82;;;;;;;13.83;100.00;100953.34;5061827;28;20033;-78
2023/10/09 00:26:51;;;;;;;9.88;4.65;;;;;;;13.89;100.00;100954.81;5080758;28;20059;-78
2023/10/09 00:29:22;;;;;;;9.57;4.28;;;;;;;13.78;100.00;100935.88;5082220;28;20056;-79
2023/10/09 00:32:03;;;;;;;7.13;3.83;;;;;;;13.76;100.00;100949.25;5082097;28;20374;-79
2023/10/09 00:34:39;;;;;;;7.45;4.03;;;;;;;13.58;100.00;100932.44;5089885;28;20059;-79
2023/10/09 00:37:10;;;;;;;7.55;3.65;;;;;;;13.51;100.00;100923.03;5079156;28;20056;-79
2023/10/09 00:39:43;;;;;;;5.95;3.63;;;;;;;13.42;100.00;100918.19;5080900;28;20186;-78
2023/10/09 00:42:15;;;;;;;11.73;4.45;;;;;;;13.41;100.00;100913.78;5076665;28;20059;-79
2023/10/09 00:44:48;;;;;;;5.70;3.80;;;;;;;13.51;100.00;100922.19;5080507;28;20063;-79
2023/10/09 00:47:26;;;;;;;6.35;3.72;;;;;;;13.45;100.00;100909.19;5081986;28;20032;-78
2023/10/09 00:50:00;;;;;;;8.07;4.28;;;;;;;13.48;100.00;100904.56;5079447;28;20044;-78
2023/10/09 00:52:36;;;;;;;8.13;3.95;;;;;;;13.57;100.00;100901.44;5075829;28;20040;-79
2023/10/09 00:55:13;;;;;;;8.02;3.97;;;;;;;13.61;100.00;100899.47;5079839;28;20113;-79
2023/10/09 00:57:50;;;;;;;10.50;4.47;;;;;;;13.70;100.00;100889.22;5066367;28;20162;-78
2023/10/09 01:00:32;;;;;;;5.25;3.85;;;;;;;13.63;100.00;100871.84;5078047;28;20082;-78
2023/10/09 01:03:19;;;;;;;6.68;3.80;;;;;;;13.70;100.00;100870.56;5080167;28;20033;-78
2023/10/09 01:05:58;;;;;;;7.35;4.13;;;;;;;13.76;100.00;100879.19;5067126;28;20037;-77
2023/10/09 01:08:32;;;;;;;6.70;4.38;;;;;;;13.77;100.00;100891.56;5065827;28;20060;-78
2023/10/09 01:11:09;;;;;;;7.60;4.10;;;;;;;13.74;100.00;100878.41;5076996;28;20098;-78
2023/10/09 01:13:52;;;;;;;6.38;4.13;;;;;;;13.75;100.00;100881.00;5076044;28;20575;-78
2023/10/09 01:16:22;;;;;;;8.90;4.13;;;;;;;13.78;100.00;100880.84;5080725;28;20040;-78
2023/10/09 01:18:57;;;;;;;9.27;4.30;;;;;;;13.80;100.00;100891.41;5088658;28;20071;-78
2023/10/09 01:21:31;;;;;;;7.32;4.30;;;;;;;13.72;100.00;100872.31;5074014;28;20048;-78
2023/10/09 01:24:11;;;;;;;10.55;4.80;;;;;;;13.78;100.00;100878.19;5078165;28;20051;-78
2023/10/09 01:26:46;;;;;;;10.63;4.22;;;;;;;13.76;100.00;100863.22;5077617;28;20064;-78
2023/10/09 01:29:19;;;;;;;11.13;4.45;;;;;;;13.78;100.00;100879.97;5085227;28;20052;-78
2023/10/09 01:31:54;;;;;;;11.77;4.95;;;;;;;13.80;100.00;100888.75;5077690;28;20048;-78
2023/10/09 01:34:38;;;;;;;12.52;5.13;;;;;;;13.77;100.00;100880.91;5074908;28;20048;-78
2023/10/09 01:37:18;;;;;;;9.75;5.22;;;;;;;13.80;100.00;100870.97;5081631;28;20473;-78
2023/10/09 01:39:51;;;;;;;12.98;4.63;;;;;;;13.88;100.00;100875.88;5084002;28;20136;-79
2023/10/09 01:42:33;;;;;;;9.10;5.07;;;;;;;13.89;100.00;100872.28;5079728;28;20289;-79
2023/10/09 01:45:15;;;;;;;15.43;6.72;;;;;;;13.83;100.00;100877.94;5045981;28;20121;-79
2023/10/09 01:47:55;;;;;;;28.50;10.80;;;;;;;13.76;100.00;100885.38;5081366;28;20063;-78
2023/10/09 01:50:30;;;;;;;33.08;11.88;;;;;;;13.75;100.00;100883.66;5063076;28;20505;-78
2023/10/09 01:53:00;;;;;;;29.05;10.43;;;;;;;13.76;100.00;100882.72;5061499;28;20052;-78
2023/10/09 01:55:34;;;;;;;29.53;9.70;;;;;;;13.67;100.00;100870.75;5074991;28;20055;-79
2023/10/09 01:58:09;;;;;;;26.95;9.30;;;;;;;13.72;100.00;100882.94;5081030;28;20463;-78
2023/10/09 02:00:43;;;;;;;22.05;8.00;;;;;;;13.65;100.00;100867.31;5073375;28;20497;-79
2023/10/09 02:03:23;;;;;;;20.90;7.63;;;;;;;13.59;100.00;100851.66;5065485;28;20052;-79
2023/10/09 02:06:24;;;;;;;20.45;8.30;;;;;;;13.74;100.00;100873.94;5077217;28;20059;-78
2023/10/09 02:08:49;;;;;;;19.85;7.72;;;;;;;13.77;100.00;100878.25;5078704;28;20074;-78
2023/10/09 02:11:24;;;;;;;14.35;6.25;;;;;;;13.82;100.00;100884.19;5056759;28;20045;-79
2023/10/09 02:14:00;;;;;;;13.82;6.28;;;;;;;13.87;100.00;100884.81;5058499;28;21627;-77
2023/10/09 02:16:29;;;;;;;10.85;6.15;;;;;;;13.82;100.00;100871.75;5059377;28;20505;-78
2023/10/09 02:18:58;;;;;;;11.05;6.22;;;;;;;13.86;100.00;100869.78;5089068;28;20060;-79
2023/10/09 02:21:32;;;;;;;13.67;6.40;;;;;;;14.00;100.00;100880.56;5063601;28;20048;-78
2023/10/09 02:24:08;;;;;;;10.35;6.43;;;;;;;14.04;100.00;100879.44;5062949;28;20514;-78
2023/10/09 02:27:06;;;;;;;10.00;5.78;;;;;;;13.84;100.00;100837.06;5076919;28;20463;-78
2023/10/09 02:29:38;;;;;;;10.82;6.72;;;;;;;14.07;100.00;100873.97;5063249;28;20049;-78
2023/10/09 02:32:16;;;;;;;12.63;6.90;;;;;;;14.12;100.00;100877.25;5074215;28;20098;-79
2023/10/09 02:34:46;;;;;;;13.70;6.97;;;;;;;14.07;100.00;100851.78;5072270;28;20052;-78
2023/10/09 02:37:23;;;;;;;10.45;6.57;;;;;;;14.15;100.00;100860.25;5081615;28;20074;-78
2023/10/09 02:39:52;;;;;;;11.32;6.60;;;;;;;14.10;100.00;100838.31;5097126;28;20052;-78
2023/10/09 02:42:26;;;;;;;15.38;6.97;;;;;;;14.07;100.00;100828.69;5086462;28;20051;-78
2023/10/09 02:45:00;;;;;;;13.50;6.57;;;;;;;14.24;100.00;100849.94;5059350;28;20083;-79
2023/10/09 02:47:39;;;;;;;13.40;7.07;;;;;;;14.27;100.00;100840.91;5065538;28;20044;-78
2023/10/09 02:50:19;;;;;;;12.25;6.93;;;;;;;14.24;100.00;100839.28;5101176;28;20068;-78
2023/10/09 02:52:52;;;;;;;15.13;7.65;;;;;;;14.17;100.00;100829.91;5099068;28;20043;-78
2023/10/09 02:55:25;;;;;;;14.70;6.82;;;;;;;14.22;100.00;100826.97;5080256;28;20059;-78
2023/10/09 02:58:05;;;;;;;12.88;6.90;;;;;;;14.25;100.00;100832.16;5084661;28;20060;-79
2023/10/09 03:00:36;;;;;;;15.03;6.90;;;;;;;14.26;100.00;100837.41;5101541;28;20039;-79
2023/10/09 03:03:07;;;;;;;13.77;6.78;;;;;;;14.24;100.00;100836.63;5098514;28;20079;-80
2023/10/09 03:05:39;;;;;;;13.38;6.28;;;;;;;14.14;100.00;100814.09;5090807;28;20427;-79
2023/10/09 03:08:12;;;;;;;10.68;6.93;;;;;;;14.25;100.00;100829.50;5095676;28;20052;-78
2023/10/09 03:10:41;;;;;;;13.65;6.82;;;;;;;14.25;100.00;100830.34;5084136;28;20193;-78
2023/10/09 03:13:19;;;;;;;14.38;6.72;;;;;;;14.18;100.00;100797.00;5099359;28;20044;-78
2023/10/09 03:15:51;;;;;;;14.27;6.97;;;;;;;14.06;100.00;100776.38;5071953;28;20044;-80
2023/10/09 03:18:20;;;;;;;12.68;6.68;;;;;;;14.32;100.00;100813.06;5087385;28;20058;-79
2023/10/09 03:20:48;;;;;;;12.23;6.82;;;;;;;14.30;100.00;100803.47;5084623;28;20059;-79
2023/10/09 03:23:20;;;;;;;13.43;7.82;;;;;;;14.21;100.00;100777.31;5099518;28;20032;-79
2023/10/09 03:25:58;;;;;;;14.10;7.40;;;;;;;14.39;100.00;100806.47;5078111;28;20044;-79
2023/10/09 03:28:49;;;;;;;12.05;7.50;;;;;;;14.22;100.00;100771.91;5071709;28;20044;-79
2023/10/09 03:31:17;;;;;;;16.65;8.60;;;;;;;14.32;100.00;100786.41;5080135;28;20040;-79
2023/10/09 03:33:45;;;;;;;15.30;7.80;;;;;;;14.44;100.00;100802.72;5079259;28;20044;-79
2023/10/09 03:36:16;;;;;;;13.75;8.25;;;;;;;14.41;100.00;100789.56;5100192;28;20353;-79
2023/10/09 03:38:45;;;;;;;16.52;8.23;;;;;;;14.49;100.00;100797.97;5097344;28;20098;-80
2023/10/09 03:41:14;;;;;;;12.85;7.45;;;;;;;14.50;100.00;100802.34;5089228;28;20149;-79
2023/10/09 03:43:46;;;;;;;13.32;7.85;;;;;;;14.31;100.00;100770.56;5070029;28;20048;-79
2023/10/09 03:46:20;;;;;;;17.00;8.63;;;;;;;14.41;100.00;100786.91;5102951;28;20066;-79
2023/10/09 03:48:50;;;;;;;14.45;8.07;;;;;;;14.53;100.00;100812.84;5099153;28;20041;-78
2023/10/09 03:51:22;;;;;;;17.50;8.15;;;;;;;14.54;100.00;100806.56;5086362;28;20101;-78
2023/10/09 03:53:50;;;;;;;18.60;8.38;;;;;;;14.42;100.00;100777.97;5074524;28;20044;-79
2023/10/09 03:56:24;;;;;;;15.73;8.70;;;;;;;14.55;100.00;100810.97;5083664;28;20143;-79
2023/10/09 03:58:54;;;;;;;16.08;8.60;;;;;;;14.43;100.00;100795.66;5064997;28;20057;-79
2023/10/09 04:01:27;;;;;;;19.80;8.85;;;;;;;14.48;100.00;100820.25;5097501;28;20063;-78
2023/10/09 04:03:59;;;;;;;16.50;8.68;;;;;;;14.41;100.00;100819.72;5077264;28;20060;-78
2023/10/09 04:06:33;;;;;;;15.68;8.82;;;;;;;14.39;100.00;100830.44;5091149;28;20044;-77
2023/10/09 04:09:26;;;;;;;18.17;8.50;;;;;;;14.32;100.00;100809.56;5096568;28;20044;-78
2023/10/09 04:14:54;;;;;;;15.35;8.30;;;;;;;14.39;100.00;100817.13;5091058;28;20074;-77
2023/10/09 04:17:36;;;;;;;17.75;9.27;;;;;;;14.37;100.00;100818.16;5076931;28;20079;-77
2023/10/09 04:23:04;;;;;;;20.27;9.25;;;;;;;14.49;100.00;100809.47;5079414;28;20104;-78
2023/10/09 04:25:41;;;;;;;13.63;8.65;;;;;;;14.44;100.00;100813.38;5065392;28;20055;-78
2023/10/09 04:28:18;;;;;;;16.48;8.57;;;;;;;14.39;100.00;100801.13;5102712;28;20112;-78
2023/10/09 04:30:53;;;;;;;15.68;8.65;;;;;;;14.49;100.00;100813.97;5068739;28;20045;-79
2023/10/09 04:33:42;;;;;;;15.18;8.15;;;;;;;14.45;100.00;100804.44;5083748;28;20111;-79
2023/10/09 04:42:35;;;;;;;18.27;8.65;;;;;;;14.62;100.00;100804.34;5141235;27;20730;-83
2023/10/09 04:45:51;;;;;;;18.27;8.20;;;;;;;14.57;100.00;100814.41;5120717;28;20067;-83
2023/10/09 04:48:08;;;;;;;17.15;8.38;;;;;;;14.55;100.00;100821.63;5124613;28;20089;-83
2023/10/09 04:53:43;;;;;;;19.40;7.65;;;;;;;14.55;100.00;100808.28;5115874;28;20036;-84
2023/10/09 04:56:17;;;;;;;14.07;7.97;;;;;;;14.51;100.00;100814.72;5108376;28;20040;-84
2023/10/09 04:59:03;;;;;;;15.15;8.20;;;;;;;14.55;100.00;100818.94;5115422;28;20139;-84
2023/10/09 05:01:57;;;;;;;14.50;7.50;;;;;;;14.63;100.00;100827.38;5097752;28;20049;-83
2023/10/09 05:07:50;;;;;;;14.68;7.93;;;;;;;14.60;100.00;100824.88;5128916;27;20039;-84
2023/10/09 05:10:24;;;;;;;14.00;7.53;;;;;;;14.66;100.00;100820.06;5113904;28;20123;-83
2023/10/09 05:12:57;;;;;;;16.65;8.45;;;;;;;14.60;100.00;100819.56;5105855;28;20436;-84
2023/10/09 05:15:29;;;;;;;15.05;7.60;;;;;;;14.54;100.00;100810.09;5113823;28;20040;-84
2023/10/09 05:18:09;;;;;;;22.05;8.35;;;;;;;14.57;100.00;100807.25;5107893;28;20381;-83
2023/10/09 05:23:27;;;;;;;18.63;7.47;;;;;;;14.49;100.00;100787.31;5104436;28;20050;-82
2023/10/09 05:25:55;;;;;;;22.13;7.78;;;;;;;14.63;100.00;100819.38;5114613;28;20083;-84
2023/10/09 05:28:52;;;;;;;17.20;7.40;;;;;;;14.57;100.00;100812.59;5116368;28;20033;-84
2023/10/09 05:31:55;;;;;;;18.73;7.47;;;;;;;14.57;100.00;100812.59;5119536;28;20097;-85
2023/10/09 05:34:33;;;;;;;18.25;7.75;;;;;;;14.61;100.00;100816.81;5119641;28;20054;-83
2023/10/09 05:37:17;;;;;;;12.85;7.15;;;;;;;14.59;100.00;100817.84;5121935;28;20120;-82
2023/10/09 05:40:22;;;;;;;15.07;7.55;;;;;;;14.52;100.00;100814.66;5120418;28;20103;-84
2023/10/09 05:42:42;;;;;;;15.85;7.10;;;;;;;14.52;100.00;100819.13;5101246;28;20040;-83
2023/10/09 06:09:10;;;;;;;16.63;7.82;;;;;;;14.68;100.00;100810.16;5098534;28;20052;-85
2023/10/09 06:11:49;;;;;;;16.17;7.30;;;;;;;14.84;100.00;100814.63;5100366;28;20376;-84
2023/10/09 06:17:27;;;;;;;12.82;7.30;;;;;;;14.80;100.00;100821.91;5103437;28;20044;-83
2023/10/09 06:20:39;;;;;;;21.17;8.07;;;;;;;14.85;100.00;100835.00;5100427;28;20044;-84
2023/10/09 06:23:04;;;;;;;15.10;7.55;;;;;;;14.70;100.00;100815.41;5091781;28;20516;-83
2023/10/09 06:25:39;;;;;;;14.27;8.52;;;;;;;14.76;100.00;100811.53;5105098;28;20068;-83
2023/10/09 06:28:18;;;;;;;15.52;8.27;;;;;;;14.80;100.00;100826.41;5107336;28;20028;-82
2023/10/09 06:31:27;;;;;;;17.75;7.30;;;;;;;14.70;100.00;100804.75;5106192;28;20180;-84
2023/10/09 06:34:15;;;;;;;18.92;7.53;;;;;;;14.88;100.00;100830.34;5108050;28;20087;-80
2023/10/09 06:36:52;;;;;;;14.23;6.55;;;;;;;15.00;100.00;100816.28;5111824;28;20031;-81
2023/10/09 06:42:30;;;;;;;20.33;7.80;;;;;;;15.05;100.00;100827.56;5070140;28;20048;-83
2023/10/09 06:45:04;;;;;;;17.70;7.55;;;;;;;14.87;100.00;100809.97;5105894;28;20120;-83
2023/10/09 06:47:41;;;;;;;12.45;6.78;;;;;;;14.87;100.00;100807.31;5109851;28;20113;-81
2023/10/09 06:50:24;;;;;;;20.10;7.10;;;;;;;15.04;100.00;100815.19;5110408;28;20446;-82
2023/10/09 06:53:19;;;;;;;16.73;7.40;;;;;;;15.13;100.00;100816.44;5095270;28;20127;-84
2023/10/09 06:56:05;;;;;;;23.15;7.47;;;;;;;15.17;100.00;100795.78;5097072;28;20051;-83
2023/10/09 06:58:41;;;;;;;14.67;6.97;;;;;;;15.35;100.00;100811.53;5098807;28;20393;-83
2023/10/09 07:01:39;;;;;;;13.80;7.70;;;;;;;15.28;100.00;100793.31;5101306;28;20094;-84
2023/10/09 07:04:19;;;;;;;18.80;6.97;;;;;;;15.25;100.00;100796.19;5096166;28;20125;-82
2023/10/09 07:06:48;;;;;;;21.65;7.80;;;;;;;15.44;100.00;100818.13;5100843;28;20089;-84
2023/10/09 07:10:28;;;;;;;17.33;7.75;;;;;;;15.31;100.00;100811.81;5032554;27;3166415;-80
2023/10/09 07:12:34;;;;;;;23.25;11.30;;;;;;;15.38;100.00;100824.72;5141671;28;20623;-79
2023/10/09 07:16:23;;;;;;;21.55;8.20;;;;;;;15.49;100.00;100853.41;5117053;28;20035;-79
2023/10/09 07:17:52;;;;;;;17.52;8.50;;;;;;;15.43;100.00;100849.28;5100009;28;20052;-79
2023/10/09 07:26:17;;;;;;;16.33;7.28;;;;;;;15.39;100.00;100846.91;5099053;28;20048;-78
2023/10/09 07:29:00;;;;;;;13.77;7.47;;;;;;;15.40;100.00;100845.97;5106190;28;20051;-79
2023/10/09 07:31:39;;;;;;;13.45;7.00;;;;;;;15.47;100.00;100871.31;5102895;28;20188;-78
2023/10/09 07:37:03;;;;;;;16.33;6.72;;;;;;;15.42;100.00;100857.41;5111245;28;20044;-78
2023/10/09 07:39:35;;;;;;;15.95;6.45;;;;;;;15.44;100.00;100836.81;5097321;28;20146;-79
2023/10/09 07:42:26;;;;;;;14.43;6.60;;;;;;;15.57;100.00;100834.31;5087695;28;20078;-81
2023/10/09 07:44:58;;;;;;;14.90;6.43;;;;;;;15.71;100.00;100851.22;5101777;28;20048;-81
2023/10/09 07:48:00;;;;;;;16.88;6.82;;;;;;;15.76;100.00;100849.09;5117400;28;20055;-78
2023/10/09 07:50:38;;;;;;;12.57;6.10;;;;;;;15.82;100.00;100852.34;5103643;28;20048;-79
2023/10/09 07:53:29;;;;;;;12.15;6.32;;;;;;;15.90;100.00;100855.44;5099803;28;20059;-79
2023/10/09 07:56:06;;;;;;;15.30;6.53;;;;;;;15.93;100.00;100855.22;5116805;28;20056;-80
2023/10/09 07:58:46;;;;;;;13.85;5.78;;;;;;;16.07;100.00;100860.56;5119794;28;20668;-79
2023/10/09 08:04:10;;;;;;;19.05;7.10;;;;;;;16.19;100.00;100870.50;5110123;28;20038;-79
2023/10/09 08:06:44;;;;;;;15.35;5.80;;;;;;;16.27;100.00;100864.66;5099553;28;20427;-80
2023/10/09 08:09:46;;;;;;;14.02;5.82;;;;;;;16.40;100.00;100854.91;5119570;27;20060;-79
2023/10/09 08:12:39;;;;;;;15.38;6.20;;;;;;;16.46;100.00;100842.00;5123227;28;20044;-79
2023/10/09 08:15:20;;;;;;;11.88;5.80;;;;;;;16.54;100.00;100843.31;5102278;28;20071;-79
2023/10/09 08:17:54;;;;;;;14.32;6.20;;;;;;;16.65;100.00;100867.59;5096551;28;20109;-79
2023/10/09 08:20:28;;;;;;;13.88;5.60;;;;;;;16.67;100.00;100865.69;5092522;28;20116;-79
2023/10/09 08:22:55;;;;;;;16.00;6.13;;;;;;;16.51;100.00;100848.88;5088557;28;20028;-78
2023/10/09 08:25:29;;;;;;;15.48;6.40;;;;;;;16.41;100.00;100853.94;5075506;28;20063;-79
2023/10/09 08:28:39;;;;;;;13.43;5.50;;;;;;;16.52;100.00;100883.53;5087837;28;20067;-79
2023/10/09 08:31:18;;;;;;;13.45;5.50;;;;;;;16.49;100.00;100889.09;5086017;28;20086;-80
2023/10/09 08:33:56;;;;;;;11.32;5.32;;;;;;;16.45;100.00;100877.72;5086165;28;20060;-81
2023/10/09 08:36:36;;;;;;;12.88;6.50;;;;;;;16.44;100.00;100884.03;5097952;28;20062;-80
2023/10/09 08:39:16;;;;;;;15.13;6.03;;;;;;;16.42;100.00;100877.03;5104933;28;20052;-78
2023/10/09 08:41:45;;;;;;;18.13;6.10;;;;;;;16.43;100.00;100886.78;5096139;28;20475;-80
2023/10/09 08:44:15;;;;;;;17.55;6.15;;;;;;;16.32;100.00;100890.16;5104868;28;20044;-78
2023/10/09 08:46:46;;;;;;;13.48;6.10;;;;;;;16.32;100.00;100883.94;5077550;28;20075;-79
2023/10/09 08:49:15;;;;;;;13.68;5.88;;;;;;;16.27;100.00;100876.22;5086645;28;20036;-80
2023/10/09 08:51:49;;;;;;;13.93;6.05;;;;;;;16.45;100.00;100877.72;5085495;28;20131;-80
2023/10/09 08:54:17;;;;;;;19.20;5.90;;;;;;;16.65;100.00;100867.59;5092259;28;20047;-78
2023/10/09 08:56:50;;;;;;;14.20;6.22;;;;;;;16.86;100.00;100874.22;5083148;28;20083;-79
2023/10/09 08:59:20;;;;;;;14.68;5.53;;;;;;;17.03;100.00;100882.00;5088630;28;20081;-78
2023/10/09 09:01:59;;;;;;;15.18;5.90;;;;;;;17.00;100.00;100852.75;5088584;28;20028;-80
2023/10/09 09:04:50;;;;;;;15.07;5.90;;;;;;;17.36;100.00;100899.44;5085554;28;20075;-79
2023/10/09 09:07:31;;;;;;;;;;;;;;;17.45;100.00;100893.47;5098956;28;20053;-79
2023/10/09 09:10:17;;;;;;;18.85;6.85;;;;;;;17.38;100.00;100897.53;5089843;28;19931;-79
2023/10/09 09:13:00;;;;;;;13.48;6.32;;;;;;;17.21;100.00;100885.25;5108949;28;20055;-79
2023/10/09 09:15:30;;;;;;;16.50;5.60;;;;;;;17.43;100.00;100896.25;5096131;28;20040;-79
2023/10/09 09:18:10;;;;;;;16.63;6.85;;;;;;;17.43;100.00;100887.38;5108846;28;20048;-78
2023/10/09 09:20:45;;;;;;;14.45;6.10;;;;;;;17.24;100.00;100868.16;5097474;28;20036;-78
2023/10/09 09:23:14;;;;;;;16.48;7.13;;;;;;;17.23;100.00;100903.91;5098408;28;20045;-79
2023/10/09 09:25:47;;;;;;;15.60;7.10;;;;;;;17.10;100.00;100899.38;5087697;28;20048;-80
2023/10/09 09:28:21;;;;;;;19.00;7.60;;;;;;;17.07;100.00;100893.34;5081289;28;20048;-78
2023/10/09 09:30:51;;;;;;;14.38;6.60;;;;;;;17.05;100.00;100882.75;5064882;28;20058;-78
2023/10/09 09:33:38;;;;;;;14.65;6.70;;;;;;;17.10;100.00;100886.00;5070436;28;20044;-79
2023/10/09 09:36:11;;;;;;;15.65;7.00;;;;;;;17.09;100.00;100905.69;5083583;28;20067;-78
2023/10/09 09:38:47;;;;;;;13.93;6.80;;;;;;;17.03;100.00;100906.06;5097140;28;20040;-80
2023/10/09 09:41:24;;;;;;;21.77;7.95;;;;;;;17.00;100.00;100908.94;5088216;28;20201;-79
2023/10/09 09:43:55;;;;;;;14.48;6.70;;;;;;;17.05;100.00;100890.78;5085149;28;20116;-79
2023/10/09 09:46:33;;;;;;;23.15;7.35;;;;;;;17.19;100.00;100887.19;5079316;28;20265;-77
2023/10/09 09:49:16;;;;;;;16.38;7.22;;;;;;;17.16;100.00;100880.22;5093160;28;20051;-79
2023/10/09 09:51:46;;;;;;;14.70;6.93;;;;;;;17.15;100.00;100891.91;5055994;28;20045;-80
2023/10/09 09:54:18;;;;;;;12.80;7.25;;;;;;;17.33;100.00;100891.59;5088912;28;20118;-78
2023/10/09 09:56:54;;;;;;;20.10;8.48;;;;;;;17.57;100.00;100898.00;5088310;28;20108;-79
2023/10/09 09:59:29;;;;;;;17.85;7.57;;;;;;;17.70;100.00;100917.66;5100190;28;20384;-78
2023/10/09 10:02:06;;;;;;;20.55;8.10;;;;;;;17.33;100.00;100896.97;5088994;28;20055;-79
2023/10/09 10:04:49;;;;;;;16.20;6.93;;;;;;;17.35;100.00;100943.22;5075836;28;20052;-78
2023/10/09 10:07:21;;;;;;;18.27;7.05;;;;;;;17.21;100.00;100937.94;5086122;28;20131;-78
2023/10/09 10:09:54;;;;;;;16.30;6.85;;;;;;;17.14;100.00;100941.03;5081516;28;20052;-78
2023/10/09 10:13:00;;;;;;;16.83;7.00;;;;;;;17.34;100.00;100939.69;5102558;28;20571;-79
2023/10/09 10:16:11;;;;;;;17.27;6.88;;;;;;;17.50;100.00;100931.50;5095163;28;20077;-79
2023/10/09 10:19:21;;;;;;;15.63;6.65;;;;;;;17.59;100.00;100889.88;5107914;28;20423;-79
2023/10/09 10:21:53;;;;;;;17.45;7.53;;;;;;;17.79;100.00;100894.72;5099195;28;20124;-79
2023/10/09 10:24:53;;;;;;;16.20;7.53;;;;;;;17.94;100.00;100903.53;5090109;28;20055;-79
2023/10/09 10:27:32;;;;;;;14.80;6.97;;;;;;;18.05;100.00;100900.97;5076489;28;20143;-81
2023/10/09 10:30:33;;;;;;;14.43;6.53;;;;;;;17.96;100.00;100888.19;5090949;28;20112;-79
2023/10/09 10:33:15;;;;;;;18.38;6.20;;;;;;;17.96;100.00;100917.66;5086041;28;20060;-79
2023/10/09 10:35:52;;;;;;;16.77;6.53;;;;;;;17.77;100.00;100872.56;5084714;28;20057;-80
2023/10/09 10:38:36;;;;;;;18.52;6.85;;;;;;;18.05;100.00;100856.28;5074270;28;20044;-78
2023/10/09 10:41:23;;;;;;;19.77;7.72;;;;;;;18.42;100.00;100869.69;5076866;28;20055;-78
2023/10/09 10:44:33;;;;;;;18.58;8.98;;;;;;;18.40;100.00;100845.72;5073466;28;20035;-75
2023/10/09 10:46:56;;;;;;;14.00;5.88;;;;;;;18.46;100.00;100868.53;5076099;28;20048;-75
2023/10/09 10:49:36;;;;;;;16.40;6.22;;;;;;;18.44;100.00;100865.09;5064885;28;20059;-76
2023/10/09 10:52:17;;;;;;;13.97;6.90;;;;;;;18.60;100.00;100867.56;5081154;28;20032;-76
2023/10/09 10:55:05;;;;;;;15.25;6.57;;;;;;;18.78;100.00;100842.06;5076919;28;20141;-77
2023/10/09 10:58:00;;;;;;;12.90;6.15;;;;;;;18.99;100.00;100847.66;5089310;28;20115;-75
2023/10/09 11:03:23;;;;;;;14.77;6.70;;;;;;;19.53;100.00;100842.63;5097135;28;20048;-75
2023/10/09 11:05:52;;;;;;;14.30;5.93;;;;;;;19.78;100.00;100845.16;5078520;28;20040;-76
2023/10/09 11:08:30;;;;;;;19.23;5.85;;;;;;;19.89;100.00;100822.78;5094630;28;20107;-77
2023/10/09 11:11:41;;;;;;;19.05;6.20;;;;;;;20.02;100.00;100836.13;5080049;28;20048;-78
2023/10/09 11:14:14;;;;;;;14.82;6.40;;;;;;;20.12;100.00;100821.84;5077478;28;20048;-75
2023/10/09 11:16:47;;;;;;;15.75;5.70;;;;;;;20.24;100.00;100825.38;5073008;28;20044;-76
2023/10/09 11:19:28;;;;;;;13.60;5.47;;;;;;;20.30;100.00;100814.94;5065859;28;20056;-77
2023/10/09 11:24:45;;;;;;;12.02;5.25;;;;;;;20.30;100.00;100811.44;5077516;28;20083;-77
2023/10/09 11:27:18;;;;;;;18.70;5.63;;;;;;;20.12;100.00;100802.16;5056750;28;20052;-76
2023/10/09 11:30:05;;;;;;;12.65;5.25;;;;;;;20.09;100.00;100802.41;5087613;28;20048;-78
2023/10/09 11:32:37;;;;;;;13.98;5.65;;;;;;;20.23;100.00;100803.00;5075153;28;20048;-77
2023/10/09 11:35:19;;;;;;;20.00;6.45;;;;;;;20.37;100.00;100799.22;5049031;28;20037;-77
2023/10/09 11:37:57;;;;;;;12.85;5.80;;;;;;;20.39;100.00;100797.25;5054180;28;20118;-76
2023/10/09 11:40:33;;;;;;;15.15;5.72;;;;;;;20.43;100.00;100793.34;5088752;28;20047;-77
2023/10/09 11:43:12;;;;;;;12.23;5.68;;;;;;;20.32;100.00;100796.88;5072374;28;20070;-76
2023/10/09 11:45:54;;;;;;;14.77;6.10;;;;;;;20.24;100.00;100793.09;5093064;28;20044;-76
2023/10/09 11:48:27;;;;;;;16.48;7.93;;;;;;;20.26;100.00;100759.72;5069384;28;20087;-76
2023/10/09 11:51:18;;;;;;;19.48;6.32;;;;;;;20.56;100.00;100772.53;5087825;28;20077;-78
2023/10/09 11:53:49;;;;;;;13.93;6.63;;;;;;;20.76;100.00;100773.56;5078031;28;20044;-75
2023/10/09 11:56:19;;;;;;;13.73;6.75;;;;;;;20.92;100.00;100759.69;5103783;28;20044;-75
2023/10/09 11:58:51;;;;;;;14.48;6.75;;;;;;;21.07;100.00;100766.47;5097461;28;20062;-77
2023/10/09 12:01:21;;;;;;;15.40;5.90;;;;;;;21.09;100.00;100772.56;5109767;28;20051;-77
2023/10/09 12:03:53;;;;;;;9.88;5.38;;;;;;;21.06;100.00;100759.34;5093382;28;20040;-75
2023/10/09 12:06:23;;;;;;;14.32;5.60;;;;;;;21.19;100.00;100760.06;5112734;28;20036;-77
2023/10/09 12:08:53;;;;;;;14.90;5.70;;;;;;;21.29;100.00;100749.31;5088274;28;20048;-76
2023/10/09 12:11:28;;;;;;;15.50;5.95;;;;;;;21.08;100.00;100743.94;5088499;28;20036;-77
2023/10/09 12:14:00;;;;;;;15.68;5.97;;;;;;;20.99;100.00;100742.84;5067486;28;20044;-76
2023/10/09 12:16:32;;;;;;;12.90;6.03;;;;;;;21.02;100.00;100747.13;5082525;28;20044;-78
2023/10/09 12:19:02;;;;;;;10.95;4.97;;;;;;;21.04;100.00;100734.41;5059778;28;20070;-77
2023/10/09 12:21:30;;;;;;;12.60;5.72;;;;;;;21.06;100.00;100737.81;5076873;28;20090;-78
2023/10/09 12:24:02;;;;;;;14.35;5.82;;;;;;;20.82;100.00;100707.59;5076027;28;20059;-80
2023/10/09 12:26:34;;;;;;;13.70;5.40;;;;;;;20.88;100.00;100734.00;5081410;28;20072;-80
2023/10/09 12:29:10;;;;;;;12.23;5.20;;;;;;;20.69;100.00;100734.69;5092501;28;20110;-80
2023/10/09 12:31:43;;;;;;;13.25;5.15;;;;;;;20.65;100.00;100722.47;5077770;28;20032;-80
2023/10/09 12:34:15;;;;;;;10.60;5.40;;;;;;;20.57;100.00;100700.72;5098417;28;20055;-76
2023/10/09 12:36:46;;;;;;;10.20;5.03;;;;;;;20.83;100.00;100736.22;5079708;28;20047;-76
2023/10/09 12:39:18;;;;;;;15.00;5.25;;;;;;;20.88;100.00;100737.53;5066269;28;20048;-76
2023/10/09 12:41:46;;;;;;;13.82;5.07;;;;;;;20.88;100.00;100734.00;5094565;28;20115;-77
2023/10/09 12:44:18;;;;;;;15.65;5.70;;;;;;;20.84;100.00;100736.09;5096175;28;20089;-76
2023/10/09 12:46:56;;;;;;;14.68;5.93;;;;;;;20.81;100.00;100741.72;5093784;28;20417;-76
2023/10/09 12:49:28;;;;;;;12.50;5.25;;;;;;;20.83;100.00;100736.22;5069989;28;20044;-76
2023/10/09 12:51:57;;;;;;;10.75;4.90;;;;;;;20.80;100.00;100725.69;5080080;28;20077;-76
2023/10/09 12:54:28;;;;;;;12.93;4.85;;;;;;;21.00;100.00;100727.56;5072474;28;20073;-76
2023/10/09 12:56:59;;;;;;;13.32;5.20;;;;;;;21.09;100.00;100726.78;5083289;28;20817;-75
2023/10/09 12:59:28;;;;;;;10.43;5.00;;;;;;;21.17;100.00;100726.13;5068092;28;20039;-77
2023/10/09 13:01:58;;;;;;;13.60;4.90;;;;;;;21.29;100.00;100738.56;5076164;28;20326;-77
2023/10/09 13:04:31;;;;;;;13.32;4.97;;;;;;;21.28;100.00;100742.22;5095183;28;20063;-76